Time;durP1;ratioP1;P1;durP2;ratioP2;P2;SDS_P1;SDS_P2;PMS_P1;PMS_P2;Temp;Humidity;BMP_temperature;BMP_pressure;BME280_temperature;BME280_humidity;BME280_pressure;Samples;Min_cycle;Max_cycle;Signal;HPM_P1;HPM_P2
2024/01/23 00:00:55;;;;;;;17.70;5.80;;;;;;;4.71;84.99;100196.95;109575;1267;23252;-76
2024/01/23 00:03:53;;;;;;;19.10;5.20;;;;;;;4.72;85.15;100198.39;109281;1263;24208;-76
2024/01/23 00:06:44;;;;;;;19.60;5.90;;;;;;;4.73;85.07;100197.11;109163;1265;22948;-75
2024/01/23 00:09:35;;;;;;;17.80;4.50;;;;;;;4.71;85.02;100201.03;109266;1259;25256;-76
2024/01/23 00:12:26;;;;;;;19.30;4.80;;;;;;;4.71;85.14;100206.18;109438;1266;24209;-77
2024/01/23 00:15:18;;;;;;;16.60;4.90;;;;;;;4.71;85.31;100214.02;109171;1259;22575;-76
2024/01/23 00:18:09;;;;;;;17.20;5.50;;;;;;;4.70;85.38;100223.29;109469;1267;22547;-77
2024/01/23 00:21:00;;;;;;;18.50;5.50;;;;;;;4.69;85.31;100237.77;109214;1265;22675;-76
2024/01/23 00:23:52;;;;;;;17.80;5.20;;;;;;;4.68;85.42;100237.70;109488;1267;23841;-80
2024/01/23 00:26:43;;;;;;;15.50;4.70;;;;;;;4.67;85.55;100234.81;109384;1259;23186;-78
2024/01/23 00:29:35;;;;;;;16.60;4.80;;;;;;;4.68;85.67;100235.83;109697;1263;23315;-78
2024/01/23 00:32:30;;;;;;;19.10;5.30;;;;;;;4.70;85.77;100238.36;109467;1260;22554;-79
2024/01/23 00:35:21;;;;;;;18.90;5.70;;;;;;;4.69;85.75;100239.56;109505;1258;22573;-78
2024/01/23 00:38:12;;;;;;;20.80;5.90;;;;;;;4.70;85.82;100232.76;109684;1266;22596;-78
2024/01/23 00:41:01;;;;;;;;;;;;;;;4.70;85.83;100229.50;109670;1266;22582;-76
2024/01/23 00:43:51;;;;;;;18.50;5.40;;;;;;;4.70;85.94;100230.71;109459;1267;22560;-77
2024/01/23 00:46:42;;;;;;;18.90;5.40;;;;;;;4.69;86.00;100232.71;109178;1267;22953;-76
2024/01/23 00:49:33;;;;;;;15.30;3.70;;;;;;;4.70;86.03;100224.61;109529;1267;22560;-76
2024/01/23 00:52:24;;;;;;;12.80;4.40;;;;;;;4.70;86.11;100222.64;109287;1259;22672;-77
2024/01/23 00:55:15;;;;;;;17.40;4.10;;;;;;;4.69;86.17;100224.33;109055;1266;22950;-76
2024/01/23 00:58:06;;;;;;;17.70;5.50;;;;;;;4.69;86.29;100228.11;109476;1263;25874;-77
2024/01/23 01:00:57;;;;;;;16.90;5.20;;;;;;;4.69;86.24;100224.33;109257;1263;22996;-78
2024/01/23 01:03:48;;;;;;;18.70;4.70;;;;;;;4.69;86.40;100227.02;109413;1253;22672;-76
2024/01/23 01:06:39;;;;;;;12.10;3.90;;;;;;;4.68;86.36;100231.08;109445;1267;22559;-75
2024/01/23 01:09:28;;;;;;;;;;;;;;;4.65;86.27;100231.46;109651;1259;23241;-75
2024/01/23 01:12:19;;;;;;;14.10;4.40;;;;;;;4.63;86.29;100234.78;109355;1260;22601;-76
2024/01/23 01:15:11;;;;;;;15.00;3.90;;;;;;;4.61;86.35;100234.90;109448;1263;22634;-76
2024/01/23 01:18:03;;;;;;;16.20;4.50;;;;;;;4.58;86.43;100230.24;109250;1263;23831;-78
2024/01/23 01:20:55;;;;;;;16.00;3.90;;;;;;;4.55;86.56;100229.80;109570;1266;25250;-76
2024/01/23 01:23:45;;;;;;;17.00;4.40;;;;;;;4.52;86.54;100223.80;109435;1266;24222;-76
2024/01/23 01:26:34;;;;;;;;;;;;;;;4.49;86.63;100221.11;109173;1266;22574;-76
2024/01/23 01:29:25;;;;;;;15.40;4.30;;;;;;;4.46;86.61;100218.35;109386;1260;24287;-75
2024/01/23 01:32:16;;;;;;;16.20;4.90;;;;;;;4.42;86.55;100220.91;109488;1266;24332;-76
2024/01/23 01:35:08;;;;;;;16.30;4.00;;;;;;;4.38;86.55;100218.59;109366;1260;22679;-76
2024/01/23 01:37:59;;;;;;;16.30;4.50;;;;;;;4.32;86.56;100224.74;109212;1268;22784;-76
2024/01/23 01:40:50;;;;;;;12.80;4.00;;;;;;;4.29;86.62;100226.12;109386;1268;23240;-77
2024/01/23 01:43:42;;;;;;;17.20;4.20;;;;;;;4.26;86.67;100225.11;109168;1267;22623;-77
2024/01/23 01:46:33;;;;;;;16.00;4.40;;;;;;;4.25;86.78;100223.63;109337;1267;23102;-79
2024/01/23 01:49:24;;;;;;;13.10;3.80;;;;;;;4.24;86.92;100222.13;109410;1259;22553;-77
2024/01/23 01:52:16;;;;;;;12.80;3.50;;;;;;;4.22;87.00;100228.97;109357;1263;22570;-77
2024/01/23 01:55:08;;;;;;;11.50;2.90;;;;;;;4.23;87.08;100228.86;109465;1244;22563;-79
2024/01/23 01:57:59;;;;;;;10.60;3.00;;;;;;;4.25;87.09;100232.92;109428;1264;24445;-78
2024/01/23 02:00:50;;;;;;;11.90;3.00;;;;;;;4.27;87.20;100235.08;109065;1259;23000;-77
2024/01/23 02:03:41;;;;;;;14.80;3.40;;;;;;;4.29;87.23;100241.43;109411;1262;22575;-76
2024/01/23 02:06:31;;;;;;;;;;;;;;;4.32;87.32;100241.20;109531;1267;24744;-76
2024/01/23 02:09:22;;;;;;;12.50;3.00;;;;;;;4.33;87.38;100241.96;109275;1267;25320;-76
2024/01/23 02:12:13;;;;;;;12.60;3.50;;;;;;;4.34;87.20;100241.05;109182;1264;22550;-78
2024/01/23 02:15:04;;;;;;;12.90;3.20;;;;;;;4.35;87.41;100243.79;109019;1259;25453;-76
2024/01/23 02:17:55;;;;;;;12.80;3.70;;;;;;;4.36;87.33;100248.73;109223;1263;22633;-77
2024/01/23 02:20:46;;;;;;;15.40;3.50;;;;;;;4.37;87.32;100250.77;109052;1267;22552;-79
2024/01/23 02:23:37;;;;;;;16.80;3.60;;;;;;;4.37;87.36;100255.18;109056;1267;22581;-77
2024/01/23 02:26:28;;;;;;;15.80;4.10;;;;;;;4.38;87.33;100254.52;109003;1259;25460;-75
2024/01/23 02:29:17;;;;;;;;;;;;;;;4.38;87.48;100253.00;109205;1260;22603;-77
2024/01/23 02:32:08;;;;;;;13.00;2.70;;;;;;;4.38;87.59;100273.95;109366;1266;24349;-78
2024/01/23 02:34:59;;;;;;;15.20;3.90;;;;;;;4.35;87.72;100289.19;109613;1266;22678;-78
2024/01/23 02:37:50;;;;;;;13.80;3.70;;;;;;;4.30;87.60;100275.90;109320;1267;22563;-76
2024/01/23 02:40:41;;;;;;;14.00;3.70;;;;;;;4.30;87.62;100268.08;109246;1267;22681;-77
2024/01/23 02:43:32;;;;;;;12.30;3.80;;;;;;;4.32;87.69;100266.20;109272;1267;25485;-76
2024/01/23 02:46:23;;;;;;;14.80;4.50;;;;;;;4.34;87.66;100261.90;109568;1264;22657;-78
2024/01/23 02:49:14;;;;;;;14.80;4.30;;;;;;;4.35;87.57;100258.94;108842;1263;22531;-76
2024/01/23 02:52:06;;;;;;;14.00;3.70;;;;;;;4.35;87.58;100261.62;109665;1259;22808;-78
2024/01/23 02:54:56;;;;;;;14.90;4.50;;;;;;;4.36;87.58;100264.14;109558;1264;22565;-75
2024/01/23 02:57:47;;;;;;;16.90;4.90;;;;;;;4.34;87.52;100264.73;108828;1259;22626;-76
2024/01/23 03:00:39;;;;;;;12.50;3.90;;;;;;;4.33;87.55;100268.25;109335;1259;22513;-77
2024/01/23 03:03:30;;;;;;;18.00;4.70;;;;;;;4.31;87.70;100273.49;109545;1262;25303;-76
2024/01/23 03:06:21;;;;;;;13.80;3.90;;;;;;;4.29;87.75;100273.55;109237;1264;23266;-77
2024/01/23 03:09:13;;;;;;;12.30;4.10;;;;;;;4.28;87.76;100273.75;109376;1262;22852;-77
2024/01/23 03:12:16;;;;;;;18.60;6.30;;;;;;;4.27;87.86;100277.58;109469;1266;24213;-76
2024/01/23 03:15:09;;;;;;;15.20;4.50;;;;;;;4.26;87.86;100279.42;109390;1267;23021;-75
2024/01/23 03:18:01;;;;;;;15.30;4.70;;;;;;;4.26;87.87;100277.67;108728;1262;25435;-78
2024/01/23 03:20:52;;;;;;;17.90;4.50;;;;;;;4.26;87.93;100280.60;109477;1267;22644;-77
2024/01/23 03:23:42;;;;;;;17.90;5.40;;;;;;;4.26;88.00;100285.79;109396;1262;23433;-78
2024/01/23 03:26:33;;;;;;;15.50;4.20;;;;;;;4.26;88.08;100288.50;109431;1262;22556;-76
2024/01/23 03:29:25;;;;;;;16.70;4.80;;;;;;;4.26;88.15;100287.23;108998;1260;24582;-75
2024/01/23 03:32:16;;;;;;;15.80;4.40;;;;;;;4.25;88.20;100276.83;109000;1260;22543;-75
2024/01/23 03:35:07;;;;;;;16.80;4.60;;;;;;;4.25;88.26;100282.59;108965;1259;23187;-79
2024/01/23 03:37:58;;;;;;;15.70;4.60;;;;;;;4.26;88.44;100284.06;108959;1267;23479;-76
2024/01/23 03:40:49;;;;;;;16.40;4.40;;;;;;;4.26;88.39;100284.77;108924;1268;24312;-76
2024/01/23 03:43:38;;;;;;;;;;;;;;;4.27;88.39;100290.11;109306;1267;22531;-78
2024/01/23 03:46:29;;;;;;;16.00;4.50;;;;;;;4.27;88.35;100286.88;109477;1257;22661;-77
2024/01/23 03:49:21;;;;;;;15.00;4.20;;;;;;;4.27;88.51;100286.16;109277;1263;22563;-77
2024/01/23 03:52:12;;;;;;;15.70;5.00;;;;;;;4.28;88.51;100290.98;109309;1263;24601;-76
2024/01/23 03:55:05;;;;;;;16.20;4.40;;;;;;;4.28;88.51;100291.29;109564;1265;27323;-77
2024/01/23 03:57:56;;;;;;;20.00;5.60;;;;;;;4.28;88.53;100291.52;109344;1265;22563;-78
2024/01/23 04:00:47;;;;;;;15.50;4.90;;;;;;;4.27;88.62;100300.14;109159;1265;23288;-77
2024/01/23 04:03:38;;;;;;;17.20;5.90;;;;;;;4.27;88.64;100304.48;108961;1264;25323;-76
2024/01/23 04:06:29;;;;;;;18.10;5.30;;;;;;;4.28;88.74;100301.48;109463;1260;24302;-76
2024/01/23 04:09:20;;;;;;;17.00;5.00;;;;;;;4.30;88.70;100303.55;109150;1267;25010;-78
2024/01/23 04:12:10;;;;;;;;;;;;;;;4.32;88.75;100297.58;109456;1267;24171;-78
2024/01/23 04:15:00;;;;;;;19.30;4.90;;;;;;;4.31;88.81;100296.25;109162;1265;22527;-75
2024/01/23 04:17:54;;;;;;;18.50;5.90;;;;;;;4.33;88.85;100300.86;109562;1266;22583;-77
2024/01/23 04:20:45;;;;;;;19.60;5.80;;;;;;;4.34;88.81;100303.98;109491;1259;22563;-75
2024/01/23 04:23:36;;;;;;;19.10;5.70;;;;;;;4.36;88.85;100304.87;109430;1259;24278;-77
2024/01/23 04:26:27;;;;;;;13.70;3.90;;;;;;;4.38;88.89;100311.63;108892;1267;22633;-75
2024/01/23 04:29:19;;;;;;;16.60;4.10;;;;;;;4.39;88.88;100310.23;108936;1260;22533;-77
2024/01/23 04:32:10;;;;;;;16.70;4.30;;;;;;;4.42;88.77;100313.96;109180;1259;22548;-77
2024/01/23 04:35:01;;;;;;;19.20;4.80;;;;;;;4.42;88.73;100316.95;109370;1266;22520;-75
2024/01/23 04:37:52;;;;;;;16.90;4.20;;;;;;;4.42;88.68;100312.30;108837;1257;22558;-75
2024/01/23 04:40:43;;;;;;;14.70;4.30;;;;;;;4.42;88.73;100314.04;108672;1268;23139;-75
2024/01/23 04:43:32;;;;;;;;;;;;;;;4.41;88.60;100311.13;108781;1267;22538;-75
2024/01/23 04:46:23;;;;;;;18.30;4.60;;;;;;;4.41;88.59;100309.80;109304;1261;22669;-78
2024/01/23 04:49:14;;;;;;;15.00;4.10;;;;;;;4.39;88.53;100313.25;108569;1259;22520;-75
2024/01/23 04:52:06;;;;;;;16.00;4.90;;;;;;;4.38;88.58;100317.23;108577;1264;22630;-76
2024/01/23 04:54:57;;;;;;;18.30;3.50;;;;;;;4.36;88.58;100323.19;108474;1264;23132;-75
2024/01/23 04:57:46;;;;;;;;;;;;;;;4.34;88.64;100330.52;108737;1264;23902;-76
2024/01/23 05:00:36;;;;;;;14.60;3.20;;;;;;;4.32;88.70;100330.41;108544;1263;22530;-75
2024/01/23 05:03:28;;;;;;;18.50;4.30;;;;;;;4.30;88.72;100330.23;108598;1267;24375;-76
2024/01/23 05:06:18;;;;;;;12.70;2.80;;;;;;;4.30;88.81;100331.96;108824;1265;22689;-75
2024/01/23 05:09:09;;;;;;;16.40;3.70;;;;;;;4.30;88.80;100334.82;108783;1253;22868;-75
2024/01/23 05:12:00;;;;;;;12.60;3.20;;;;;;;4.30;88.85;100333.71;108891;1263;22675;-78
2024/01/23 05:14:51;;;;;;;13.30;3.10;;;;;;;4.30;88.82;100332.36;108719;1259;25232;-75
2024/01/23 05:17:42;;;;;;;14.40;3.20;;;;;;;4.31;88.81;100337.95;108727;1262;22527;-77
2024/01/23 05:20:34;;;;;;;18.50;4.50;;;;;;;4.31;88.83;100341.73;109119;1259;25463;-75
2024/01/23 05:23:24;;;;;;;16.40;3.60;;;;;;;4.31;88.75;100340.79;109007;1260;22721;-74
2024/01/23 05:26:16;;;;;;;16.80;3.20;;;;;;;4.31;88.65;100337.46;108883;1259;27210;-75
2024/01/23 05:29:07;;;;;;;15.00;3.70;;;;;;;4.30;88.54;100339.95;108861;1262;22634;-77
2024/01/23 05:31:58;;;;;;;20.00;4.60;;;;;;;4.28;88.57;100346.39;107968;1266;25614;-80
2024/01/23 05:34:49;;;;;;;14.60;3.40;;;;;;;4.27;88.46;100347.77;108707;1264;22635;-75
2024/01/23 05:37:40;;;;;;;14.60;3.00;;;;;;;4.25;88.46;100348.52;108424;1267;22590;-77
2024/01/23 05:40:31;;;;;;;13.00;3.20;;;;;;;4.24;88.46;100348.84;108454;1267;22994;-76
2024/01/23 05:43:22;;;;;;;17.80;3.30;;;;;;;4.24;88.45;100358.73;108572;1264;22632;-77
2024/01/23 05:46:13;;;;;;;12.50;2.70;;;;;;;4.22;88.24;100373.40;109070;1262;25285;-76
2024/01/23 05:49:04;;;;;;;15.10;2.80;;;;;;;4.20;88.30;100370.19;108760;1264;25446;-77
2024/01/23 05:51:55;;;;;;;16.10;2.80;;;;;;;4.19;88.30;100374.24;108881;1260;24354;-78
2024/01/23 05:54:46;;;;;;;15.40;3.40;;;;;;;4.17;88.25;100374.53;109046;1264;25344;-79
2024/01/23 05:57:37;;;;;;;15.50;3.90;;;;;;;4.15;88.23;100378.05;108683;1266;27166;-77
2024/01/23 06:00:28;;;;;;;13.30;3.20;;;;;;;4.15;88.20;100376.17;109123;1266;22680;-77
2024/01/23 06:03:20;;;;;;;11.90;2.80;;;;;;;4.14;88.20;100374.23;109025;1259;22571;-78
2024/01/23 06:06:11;;;;;;;13.20;3.20;;;;;;;4.09;88.11;100371.17;109001;1259;23764;-80
2024/01/23 06:09:02;;;;;;;12.50;3.40;;;;;;;4.05;88.20;100372.30;108701;1263;22739;-77
2024/01/23 06:11:54;;;;;;;15.30;3.70;;;;;;;4.01;88.17;100377.04;108877;1264;22546;-78
2024/01/23 06:14:45;;;;;;;20.30;5.90;;;;;;;3.99;88.15;100381.91;108777;1266;22762;-78
2024/01/23 06:17:36;;;;;;;18.70;3.40;;;;;;;3.96;88.13;100381.04;108966;1265;22696;-77
2024/01/23 06:20:27;;;;;;;13.20;3.50;;;;;;;3.93;88.09;100378.27;108727;1260;22605;-78
2024/01/23 06:23:18;;;;;;;20.20;4.30;;;;;;;3.89;88.12;100377.09;108803;1260;22520;-77
2024/01/23 06:26:09;;;;;;;14.70;3.70;;;;;;;3.86;88.10;100384.67;108833;1266;25485;-78
2024/01/23 06:29:01;;;;;;;19.60;4.80;;;;;;;3.81;88.07;100389.98;108464;1268;22608;-77
2024/01/23 06:31:52;;;;;;;14.80;3.50;;;;;;;3.79;88.13;100405.66;108544;1260;22703;-77
2024/01/23 06:34:43;;;;;;;19.00;3.80;;;;;;;3.72;88.02;100428.06;108669;1267;22518;-78
2024/01/23 06:37:35;;;;;;;15.90;3.40;;;;;;;3.57;88.07;100439.90;108992;1266;24317;-77
2024/01/23 06:40:25;;;;;;;14.50;4.60;;;;;;;3.48;88.66;100438.67;109045;1266;23696;-78
2024/01/23 06:43:16;;;;;;;19.60;4.70;;;;;;;3.44;89.00;100433.01;108913;1266;22546;-76
2024/01/23 06:46:07;;;;;;;24.20;5.10;;;;;;;3.47;89.29;100437.45;109090;1264;24245;-78
2024/01/23 06:48:58;;;;;;;24.30;5.70;;;;;;;3.51;89.38;100442.40;108804;1265;23395;-77
2024/01/23 06:51:49;;;;;;;21.70;5.00;;;;;;;3.55;89.40;100438.45;108939;1262;23130;-77
2024/01/23 06:54:40;;;;;;;19.50;5.00;;;;;;;3.60;89.45;100444.19;108654;1264;22580;-79
2024/01/23 06:57:31;;;;;;;20.00;6.50;;;;;;;3.64;89.61;100451.67;108797;1266;25322;-77
2024/01/23 07:00:22;;;;;;;21.80;7.20;;;;;;;3.68;89.54;100460.19;108877;1265;22542;-77
2024/01/23 07:03:13;;;;;;;15.10;4.70;;;;;;;3.69;89.58;100458.27;108882;1250;22522;-78
2024/01/23 07:06:04;;;;;;;16.60;3.90;;;;;;;3.69;89.59;100465.28;108921;1266;25318;-78
2024/01/23 07:08:56;;;;;;;15.30;3.20;;;;;;;3.70;89.75;100462.59;108936;1263;22563;-77
2024/01/23 07:11:49;;;;;;;18.50;3.50;;;;;;;3.72;89.71;100469.02;108841;1260;25373;-78
2024/01/23 07:14:40;;;;;;;20.10;4.00;;;;;;;3.75;89.79;100485.05;108663;1266;22741;-78
2024/01/23 07:17:32;;;;;;;19.00;6.00;;;;;;;3.78;89.77;100490.19;108515;1258;22650;-78
2024/01/23 07:20:23;;;;;;;20.60;5.00;;;;;;;3.80;89.81;100499.84;108691;1260;22554;-77
2024/01/23 07:23:15;;;;;;;18.50;4.50;;;;;;;3.80;89.79;100507.34;108785;1261;24327;-77
2024/01/23 07:26:07;;;;;;;19.00;4.30;;;;;;;3.81;89.88;100519.63;108586;1267;22595;-77
2024/01/23 07:28:58;;;;;;;27.50;6.50;;;;;;;3.81;89.87;100542.89;108815;1268;23133;-77
2024/01/23 07:31:49;;;;;;;24.40;6.40;;;;;;;3.79;89.87;100559.98;108780;1268;22536;-77
2024/01/23 07:34:40;;;;;;;20.60;5.60;;;;;;;3.75;89.95;100571.27;108672;1268;24372;-77
2024/01/23 07:37:31;;;;;;;23.70;5.80;;;;;;;3.69;90.10;100573.61;108815;1266;22575;-77
2024/01/23 07:40:22;;;;;;;19.20;4.50;;;;;;;3.68;90.41;100578.13;108778;1260;22747;-78
2024/01/23 07:43:13;;;;;;;19.70;5.20;;;;;;;3.71;90.90;100582.09;108544;1263;22524;-78
2024/01/23 07:46:04;;;;;;;20.50;5.40;;;;;;;3.72;91.08;100581.19;108725;1265;24367;-77
2024/01/23 07:48:55;;;;;;;19.90;4.90;;;;;;;3.76;91.35;100583.80;108728;1266;22539;-76
2024/01/23 07:51:50;;;;;;;17.50;3.70;;;;;;;3.81;91.65;100583.94;108811;1267;22527;-79
2024/01/23 07:54:41;;;;;;;17.20;3.80;;;;;;;3.86;91.79;100578.78;109858;1266;23319;-79
2024/01/23 07:57:32;;;;;;;18.20;3.20;;;;;;;3.91;91.90;100581.27;109963;1262;22584;-77
2024/01/23 08:00:23;;;;;;;19.10;3.50;;;;;;;3.96;91.94;100580.22;108847;1266;22549;-78
2024/01/23 08:03:15;;;;;;;16.10;3.30;;;;;;;4.00;92.27;100577.14;108722;1266;23405;-77
2024/01/23 08:06:06;;;;;;;12.60;2.70;;;;;;;4.06;92.37;100583.27;108661;1265;22642;-77
2024/01/23 08:08:57;;;;;;;23.40;6.10;;;;;;;4.09;92.31;100585.73;108838;1252;22520;-77
2024/01/23 08:11:49;;;;;;;26.50;6.10;;;;;;;4.14;92.50;100590.45;109022;1263;22755;-77
2024/01/23 08:14:40;;;;;;;15.70;2.90;;;;;;;4.20;92.83;100590.64;108684;1256;25539;-78
2024/01/23 08:17:31;;;;;;;12.10;1.60;;;;;;;4.26;92.97;100594.69;108793;1261;22559;-77
2024/01/23 08:20:22;;;;;;;13.40;1.90;;;;;;;4.30;93.13;100603.74;108852;1262;25376;-76
2024/01/23 08:23:14;;;;;;;14.00;2.50;;;;;;;4.35;92.93;100600.15;108757;1260;22648;-77
2024/01/23 08:26:06;;;;;;;11.60;1.80;;;;;;;4.38;92.86;100606.18;108699;1256;22638;-78
2024/01/23 08:28:59;;;;;;;16.20;2.40;;;;;;;4.39;92.62;100603.39;111667;1266;22272;-77
2024/01/23 08:31:49;;;;;;;10.50;1.50;;;;;;;4.39;92.52;100613.73;111648;1266;22165;-77
2024/01/23 08:34:41;;;;;;;17.80;1.50;;;;;;;4.40;92.64;100622.33;111468;1260;22164;-77
2024/01/23 08:37:32;;;;;;;15.20;1.50;;;;;;;4.42;92.53;100619.52;111632;1266;22289;-78
2024/01/23 08:40:22;;;;;;;6.90;1.30;;;;;;;4.45;92.46;100615.77;111604;1266;23536;-76
2024/01/23 08:43:13;;;;;;;8.60;1.10;;;;;;;4.47;92.41;100621.94;111627;1260;22210;-77
2024/01/23 08:46:04;;;;;;;5.80;1.20;;;;;;;4.50;92.34;100623.77;111586;1265;22158;-77
2024/01/23 08:48:55;;;;;;;9.00;0.90;;;;;;;4.54;92.15;100619.33;111535;1263;22361;-76
2024/01/23 08:51:46;;;;;;;9.10;1.60;;;;;;;4.60;92.02;100622.44;111614;1265;22336;-77
2024/01/23 08:54:37;;;;;;;12.20;1.00;;;;;;;4.66;91.78;100632.82;111604;1255;22687;-77
2024/01/23 08:57:28;;;;;;;6.00;0.80;;;;;;;4.71;91.50;100645.02;111721;1264;22168;-77
2024/01/23 09:00:20;;;;;;;7.60;0.90;;;;;;;4.75;91.41;100648.08;111346;1261;22851;-79
2024/01/23 09:03:11;;;;;;;9.00;0.90;;;;;;;4.81;91.51;100651.52;111489;1263;23222;-77
2024/01/23 09:06:00;;;;;;;;;;;;;;;4.88;91.26;100665.17;111397;1258;22363;-77
2024/01/23 09:08:51;;;;;;;9.30;1.30;;;;;;;4.94;90.94;100668.85;111383;1261;23746;-77
2024/01/23 09:11:42;;;;;;;8.60;1.20;;;;;;;5.00;90.85;100671.30;111473;1267;22375;-76
2024/01/23 09:14:33;;;;;;;8.10;1.00;;;;;;;5.06;90.63;100683.02;111473;1260;22255;-78
2024/01/23 09:17:23;;;;;;;10.50;0.80;;;;;;;5.11;90.52;100687.09;111380;1260;22682;-76
2024/01/23 09:20:15;;;;;;;6.70;0.60;;;;;;;5.16;90.24;100696.23;111119;1261;22517;-77
2024/01/23 09:23:07;;;;;;;7.00;0.80;;;;;;;5.22;89.80;100703.36;108407;1249;22632;-78
2024/01/23 09:25:58;;;;;;;7.80;0.70;;;;;;;5.27;89.39;100710.75;108433;1260;22551;-77
2024/01/23 09:28:49;;;;;;;7.80;1.50;;;;;;;5.30;89.42;100708.54;108424;1265;22762;-77
2024/01/23 09:31:47;;;;;;;13.50;0.90;;;;;;;5.32;88.85;100711.67;108448;1260;22778;-77
2024/01/23 09:34:38;;;;;;;6.20;0.60;;;;;;;5.31;88.81;100714.77;108373;1263;22520;-78
2024/01/23 09:37:29;;;;;;;4.10;0.70;;;;;;;5.30;88.68;100710.85;108424;1261;24078;-77
2024/01/23 09:40:21;;;;;;;10.50;1.50;;;;;;;5.29;88.71;100704.86;108438;1263;22569;-76
2024/01/23 09:43:13;;;;;;;19.40;5.50;;;;;;;5.27;88.71;100715.73;108426;1263;22554;-77
2024/01/23 09:46:05;;;;;;;6.20;1.10;;;;;;;5.28;88.25;100718.42;108358;1265;24235;-77
2024/01/23 09:48:56;;;;;;;12.30;1.00;;;;;;;5.32;88.35;100718.79;108448;1263;23233;-78
2024/01/23 09:51:48;;;;;;;9.80;1.00;;;;;;;5.38;88.68;100723.33;108357;1262;23359;-77
2024/01/23 09:54:40;;;;;;;8.90;1.00;;;;;;;5.44;88.55;100721.52;111378;1253;22126;-78
2024/01/23 09:57:32;;;;;;;7.70;0.90;;;;;;;5.48;88.52;100711.58;111252;1266;23258;-78
2024/01/23 10:00:23;;;;;;;5.50;0.70;;;;;;;5.51;88.32;100708.42;111326;1265;22374;-78
2024/01/23 10:03:14;;;;;;;8.30;1.00;;;;;;;5.53;87.98;100714.39;111371;1267;22404;-78
2024/01/23 10:06:06;;;;;;;8.90;0.80;;;;;;;5.53;87.52;100714.14;111578;1263;22312;-79
2024/01/23 10:08:58;;;;;;;10.90;1.20;;;;;;;5.54;87.62;100714.14;111527;1267;22195;-78
2024/01/23 10:11:50;;;;;;;6.20;0.90;;;;;;;5.57;87.55;100713.19;111547;1266;22306;-78
2024/01/23 10:14:45;;;;;;;7.60;0.90;;;;;;;5.60;87.15;100717.14;111496;1265;22896;-77
2024/01/23 10:17:36;;;;;;;7.10;1.00;;;;;;;5.66;87.18;100726.08;111323;1265;22163;-76
2024/01/23 10:20:30;;;;;;;8.30;1.00;;;;;;;5.72;86.91;100724.75;111472;1266;22636;-75
2024/01/23 10:23:22;;;;;;;7.50;0.90;;;;;;;5.79;86.69;100720.23;111291;1263;23003;-76
2024/01/23 10:26:13;;;;;;;7.70;1.10;;;;;;;5.85;86.37;100723.82;111355;1267;22409;-75
2024/01/23 10:29:04;;;;;;;11.70;1.10;;;;;;;5.90;85.59;100733.77;111416;1265;22324;-76
2024/01/23 10:31:56;;;;;;;11.10;1.00;;;;;;;5.98;85.38;100737.82;111164;1266;22551;-76
2024/01/23 10:34:47;;;;;;;11.50;1.20;;;;;;;6.03;85.11;100740.93;108281;1262;22561;-75
2024/01/23 10:37:39;;;;;;;9.20;1.30;;;;;;;6.07;84.98;100742.34;108325;1267;25478;-78
2024/01/23 10:40:30;;;;;;;10.60;0.90;;;;;;;6.10;84.93;100746.52;111388;1267;23082;-79
2024/01/23 10:43:23;;;;;;;10.20;0.90;;;;;;;6.15;84.97;100751.14;111360;1265;22164;-77
2024/01/23 10:46:15;;;;;;;8.90;1.00;;;;;;;6.21;84.83;100757.08;111481;1262;22217;-76
2024/01/23 10:49:07;;;;;;;8.40;0.80;;;;;;;6.27;84.22;100766.19;111393;1263;22121;-75
2024/01/23 10:52:03;;;;;;;10.80;0.90;;;;;;;6.30;83.93;100769.98;111207;1267;22227;-75
2024/01/23 10:54:57;;;;;;;7.90;0.80;;;;;;;6.33;83.79;100776.23;111222;1265;22265;-75
2024/01/23 10:57:49;;;;;;;11.20;0.80;;;;;;;6.34;83.57;100773.20;111234;1266;22108;-75
2024/01/23 11:00:41;;;;;;;9.50;0.80;;;;;;;6.35;83.22;100775.48;111591;1263;22463;-75
2024/01/23 11:03:34;;;;;;;8.30;0.90;;;;;;;6.36;83.48;100779.16;111496;1265;22318;-75
2024/01/23 11:06:29;;;;;;;10.30;0.80;;;;;;;6.38;83.00;100776.41;111528;1265;22163;-76
2024/01/23 11:09:27;;;;;;;11.00;0.90;;;;;;;6.40;82.90;100774.08;111337;1266;23145;-75
2024/01/23 11:12:26;;;;;;;8.80;0.80;;;;;;;6.41;82.40;100772.14;111246;1268;22327;-75
2024/01/23 11:15:18;;;;;;;8.40;1.00;;;;;;;6.42;82.81;100766.64;111403;1260;22159;-77
2024/01/23 11:18:28;;;;;;;7.80;0.90;;;;;;;6.43;82.88;100768.33;111483;1260;22287;-75
2024/01/23 11:21:22;;;;;;;5.70;0.90;;;;;;;6.47;82.28;100781.00;111491;1263;22403;-76
2024/01/23 11:24:14;;;;;;;12.30;1.00;;;;;;;6.50;82.07;100783.23;111442;1266;22391;-75
2024/01/23 11:27:06;;;;;;;;;;;;;;;6.51;82.24;100780.33;111455;1257;22351;-76
2024/01/23 11:29:59;;;;;;;7.40;0.90;;;;;;;6.53;82.22;100780.52;111312;1266;22171;-75
2024/01/23 11:32:50;;;;;;;8.10;0.70;;;;;;;6.56;81.44;100783.37;111516;1267;22115;-75
2024/01/23 11:36:10;;;;;;;8.00;1.30;;;;;;;6.59;81.85;100791.07;111455;1267;22973;-75
2024/01/23 11:39:02;;;;;;;10.10;0.70;;;;;;;6.61;81.65;100794.96;111514;1263;22951;-75
2024/01/23 11:41:55;;;;;;;10.10;1.00;;;;;;;6.62;81.41;100794.62;111520;1266;22145;-78
2024/01/23 11:44:45;;;;;;;9.80;1.10;;;;;;;6.63;81.51;100796.57;111525;1266;22796;-76
2024/01/23 11:47:35;;;;;;;;;;;;;;;6.63;81.37;100798.72;111424;1267;23099;-76
2024/01/23 11:50:26;;;;;;;9.90;0.90;;;;;;;6.61;81.12;100793.36;111488;1261;22922;-75
2024/01/23 11:53:22;;;;;;;11.10;1.20;;;;;;;6.60;81.08;100795.55;111220;1260;22238;-75
2024/01/23 11:56:15;;;;;;;12.50;0.90;;;;;;;6.59;81.07;100797.86;111532;1261;22305;-77
2024/01/23 11:59:06;;;;;;;12.00;1.10;;;;;;;6.60;80.91;100785.96;111573;1260;22136;-76
2024/01/23 12:01:58;;;;;;;8.00;0.80;;;;;;;6.61;80.75;100786.80;111441;1259;23007;-75
2024/01/23 12:04:49;;;;;;;11.20;1.00;;;;;;;6.62;80.54;100803.33;111505;1267;22869;-75
2024/01/23 12:07:40;;;;;;;12.60;1.00;;;;;;;6.63;80.49;100811.86;111450;1267;22353;-75
2024/01/23 12:10:31;;;;;;;12.30;1.80;;;;;;;6.65;80.35;100820.01;111501;1266;22632;-75
2024/01/23 12:13:24;;;;;;;4.70;0.80;;;;;;;6.65;80.24;100816.09;111398;1264;187621;-75
2024/01/23 12:16:15;;;;;;;8.90;1.20;;;;;;;6.65;79.24;100810.70;111556;1267;22929;-76
2024/01/23 12:19:05;;;;;;;8.80;0.80;;;;;;;6.65;79.02;100812.61;111637;1266;22174;-76
2024/01/23 12:21:57;;;;;;;8.70;0.80;;;;;;;6.65;78.84;100823.48;111570;1263;23143;-75
2024/01/23 12:24:48;;;;;;;11.20;0.80;;;;;;;6.63;78.14;100817.50;111570;1266;22124;-75
2024/01/23 12:27:39;;;;;;;13.30;1.10;;;;;;;6.62;78.73;100819.05;111551;1263;22303;-75
2024/01/23 12:30:31;;;;;;;9.70;1.50;;;;;;;6.61;78.59;100828.49;111523;1266;22627;-75
2024/01/23 12:33:22;;;;;;;9.00;1.10;;;;;;;6.58;78.14;100826.35;111538;1264;22143;-75
2024/01/23 12:36:16;;;;;;;16.30;1.20;;;;;;;6.57;78.45;100831.79;111571;1264;23051;-75
2024/01/23 12:39:11;;;;;;;6.60;1.00;;;;;;;6.55;77.99;100835.16;111553;1266;22182;-75
2024/01/23 12:42:03;;;;;;;13.80;1.00;;;;;;;6.52;77.91;100826.02;111513;1266;22661;-76
2024/01/23 12:44:54;;;;;;;9.20;0.90;;;;;;;6.50;77.71;100829.50;111514;1263;22279;-76
2024/01/23 12:47:46;;;;;;;9.80;1.20;;;;;;;6.48;77.20;100836.84;111535;1263;22120;-76
2024/01/23 12:50:39;;;;;;;14.00;0.80;;;;;;;6.47;77.12;100839.57;111503;1261;23013;-75
2024/01/23 12:53:29;;;;;;;9.20;1.00;;;;;;;6.48;77.50;100837.56;111478;1260;22253;-75
2024/01/23 12:56:21;;;;;;;9.30;0.80;;;;;;;6.48;77.33;100843.26;111508;1260;22349;-77
2024/01/23 12:59:11;;;;;;;8.10;1.40;;;;;;;6.48;77.32;100845.48;111507;1260;22770;-76
2024/01/23 13:02:02;;;;;;;7.60;1.10;;;;;;;6.48;77.35;100849.04;111579;1263;22359;-76
2024/01/23 13:04:53;;;;;;;5.60;0.80;;;;;;;6.49;77.34;100853.38;111457;1254;22292;-76
2024/01/23 13:07:44;;;;;;;8.90;1.30;;;;;;;6.50;77.25;100850.11;111470;1267;22150;-76
2024/01/23 13:10:35;;;;;;;9.00;1.10;;;;;;;6.51;77.36;100852.70;111457;1263;22134;-77
2024/01/23 13:13:26;;;;;;;14.30;1.60;;;;;;;6.53;77.15;100857.40;111491;1260;22124;-77